sensor_id;sensor_type;location;lat;lon;timestamp;temperature;humidity
36206;DHT22;22242;48.796;9.930;2023-04-01T00:01:26;8.70;99.90
36206;DHT22;22242;48.796;9.930;2023-04-01T00:03:53;8.80;99.90
36206;DHT22;22242;48.796;9.930;2023-04-01T00:06:21;8.70;99.90
36206;DHT22;22242;48.796;9.930;2023-04-01T00:08:49;8.70;99.90
36206;DHT22;22242;48.796;9.930;2023-04-01T00:11:16;8.70;99.90
36206;DHT22;22242;48.796;9.930;2023-04-01T00:13:44;8.70;99.90
36206;DHT22;22242;48.796;9.930;2023-04-01T00:16:11;8.70;99.90
36206;DHT22;22242;48.796;9.930;2023-04-01T00:18:39;8.70;99.90
36206;DHT22;22242;48.796;9.930;2023-04-01T00:21:07;8.80;99.90
36206;DHT22;22242;48.796;9.930;2023-04-01T00:23:34;8.70;99.90
36206;DHT22;22242;48.796;9.930;2023-04-01T00:26:03;8.70;99.90
36206;DHT22;22242;48.796;9.930;2023-04-01T00:28:30;8.70;99.90
36206;DHT22;22242;48.796;9.930;2023-04-01T00:30:57;8.70;99.90
36206;DHT22;22242;48.796;9.930;2023-04-01T00:33:25;8.60;99.90
36206;DHT22;22242;48.796;9.930;2023-04-01T00:35:54;8.70;99.90
36206;DHT22;22242;48.796;9.930;2023-04-01T00:38:22;8.60;99.90
36206;DHT22;22242;48.796;9.930;2023-04-01T00:40:49;8.70;99.90
36206;DHT22;22242;48.796;9.930;2023-04-01T00:43:18;8.70;99.90
36206;DHT22;22242;48.796;9.930;2023-04-01T00:45:48;8.70;99.90
36206;DHT22;22242;48.796;9.930;2023-04-01T00:48:17;8.60;99.90
36206;DHT22;22242;48.796;9.930;2023-04-01T00:50:49;8.70;99.90
36206;DHT22;22242;48.796;9.930;2023-04-01T00:53:19;8.70;99.90
36206;DHT22;22242;48.796;9.930;2023-04-01T00:55:51;8.70;99.90
36206;DHT22;22242;48.796;9.930;2023-04-01T00:58:23;8.70;99.90
36206;DHT22;22242;48.796;9.930;2023-04-01T01:00:52;8.70;99.90
36206;DHT22;22242;48.796;9.930;2023-04-01T01:03:19;8.70;99.90
36206;DHT22;22242;48.796;9.930;2023-04-01T01:06:10;8.70;99.90
36206;DHT22;22242;48.796;9.930;2023-04-01T01:08:51;8.70;99.90
36206;DHT22;22242;48.796;9.930;2023-04-01T01:11:25;8.70;99.90
36206;DHT22;22242;48.796;9.930;2023-04-01T01:13:59;8.70;99.90
36206;DHT22;22242;48.796;9.930;2023-04-01T01:16:30;8.60;99.90
36206;DHT22;22242;48.796;9.930;2023-04-01T01:19:05;8.70;99.90
36206;DHT22;22242;48.796;9.930;2023-04-01T01:22:15;8.70;99.90
36206;DHT22;22242;48.796;9.930;2023-04-01T01:24:55;8.70;99.90
36206;DHT22;22242;48.796;9.930;2023-04-01T01:27:27;8.70;99.90
36206;DHT22;22242;48.796;9.930;2023-04-01T01:30:32;8.60;99.90
36206;DHT22;22242;48.796;9.930;2023-04-01T01:33:14;8.60;99.90
36206;DHT22;22242;48.796;9.930;2023-04-01T01:35:47;8.60;99.90
36206;DHT22;22242;48.796;9.930;2023-04-01T01:38:21;8.50;99.90
36206;DHT22;22242;48.796;9.930;2023-04-01T01:40:55;8.50;99.90
36206;DHT22;22242;48.796;9.930;2023-04-01T01:43:26;8.20;99.90
36206;DHT22;22242;48.796;9.930;2023-04-01T01:45:59;8.20;99.90
36206;DHT22;22242;48.796;9.930;2023-04-01T01:48:29;8.00;99.90
36206;DHT22;22242;48.796;9.930;2023-04-01T01:50:59;8.00;99.90
36206;DHT22;22242;48.796;9.930;2023-04-01T01:53:26;7.90;99.90
36206;DHT22;22242;48.796;9.930;2023-04-01T01:55:54;7.90;99.90
36206;DHT22;22242;48.796;9.930;2023-04-01T01:58:23;7.80;99.90
36206;DHT22;22242;48.796;9.930;2023-04-01T02:00:54;7.90;99.90
36206;DHT22;22242;48.796;9.930;2023-04-01T02:03:24;7.90;99.90
36206;DHT22;22242;48.796;9.930;2023-04-01T02:05:56;8.00;99.90
36206;DHT22;22242;48.796;9.930;2023-04-01T02:08:28;7.90;99.90
36206;DHT22;22242;48.796;9.930;2023-04-01T02:11:00;7.90;99.90
36206;DHT22;22242;48.796;9.930;2023-04-01T02:13:37;8.00;99.90
36206;DHT22;22242;48.796;9.930;2023-04-01T02:16:11;7.90;99.90
36206;DHT22;22242;48.796;9.930;2023-04-01T02:18:39;7.90;99.90
36206;DHT22;22242;48.796;9.930;2023-04-01T02:21:09;7.90;99.90
36206;DHT22;22242;48.796;9.930;2023-04-01T02:23:38;7.90;99.90
36206;DHT22;22242;48.796;9.930;2023-04-01T02:26:07;7.90;99.90
36206;DHT22;22242;48.796;9.930;2023-04-01T02:28:37;7.90;99.90
36206;DHT22;22242;48.796;9.930;2023-04-01T02:31:07;7.90;99.90
36206;DHT22;22242;48.796;9.930;2023-04-01T02:33:38;7.80;99.90
36206;DHT22;22242;48.796;9.930;2023-04-01T02:36:06;7.70;99.90
36206;DHT22;22242;48.796;9.930;2023-04-01T02:38:38;7.60;99.90
36206;DHT22;22242;48.796;9.930;2023-04-01T02:41:06;7.70;99.90
36206;DHT22;22242;48.796;9.930;2023-04-01T02:43:34;7.70;99.90
36206;DHT22;22242;48.796;9.930;2023-04-01T02:46:01;7.70;99.90
36206;DHT22;22242;48.796;9.930;2023-04-01T02:48:28;7.70;99.90
36206;DHT22;22242;48.796;9.930;2023-04-01T02:50:56;7.70;99.90
36206;DHT22;22242;48.796;9.930;2023-04-01T02:53:23;7.80;99.90
36206;DHT22;22242;48.796;9.930;2023-04-01T02:55:52;7.70;99.90
36206;DHT22;22242;48.796;9.930;2023-04-01T02:58:20;7.70;99.90
36206;DHT22;22242;48.796;9.930;2023-04-01T03:00:48;7.70;99.90
36206;DHT22;22242;48.796;9.930;2023-04-01T03:03:16;7.80;99.90
36206;DHT22;22242;48.796;9.930;2023-04-01T03:05:43;7.70;99.90
36206;DHT22;22242;48.796;9.930;2023-04-01T03:08:10;7.70;99.90
36206;DHT22;22242;48.796;9.930;2023-04-01T03:10:37;7.80;99.90
36206;DHT22;22242;48.796;9.930;2023-04-01T03:13:06;7.70;99.90
36206;DHT22;22242;48.796;9.930;2023-04-01T03:15:33;7.70;99.90
36206;DHT22;22242;48.796;9.930;2023-04-01T03:18:00;7.70;99.90
36206;DHT22;22242;48.796;9.930;2023-04-01T03:20:27;7.70;99.90
36206;DHT22;22242;48.796;9.930;2023-04-01T03:22:54;7.60;99.90
36206;DHT22;22242;48.796;9.930;2023-04-01T03:25:21;7.70;99.90
36206;DHT22;22242;48.796;9.930;2023-04-01T03:27:49;7.60;99.90
36206;DHT22;22242;48.796;9.930;2023-04-01T03:30:17;7.70;99.90
36206;DHT22;22242;48.796;9.930;2023-04-01T03:32:49;7.60;99.90
36206;DHT22;22242;48.796;9.930;2023-04-01T03:35:16;7.60;99.90
36206;DHT22;22242;48.796;9.930;2023-04-01T03:37:45;7.60;99.90
36206;DHT22;22242;48.796;9.930;2023-04-01T03:40:12;7.60;99.90
36206;DHT22;22242;48.796;9.930;2023-04-01T03:42:39;7.60;99.90
36206;DHT22;22242;48.796;9.930;2023-04-01T03:45:07;7.60;99.90
36206;DHT22;22242;48.796;9.930;2023-04-01T03:47:36;7.70;99.90
36206;DHT22;22242;48.796;9.930;2023-04-01T03:50:03;7.70;99.90
36206;DHT22;22242;48.796;9.930;2023-04-01T03:52:30;7.70;99.90
36206;DHT22;22242;48.796;9.930;2023-04-01T03:54:57;7.70;99.90
36206;DHT22;22242;48.796;9.930;2023-04-01T03:57:25;7.70;99.90
36206;DHT22;22242;48.796;9.930;2023-04-01T03:59:55;7.70;99.90
36206;DHT22;22242;48.796;9.930;2023-04-01T04:02:22;7.70;99.90
36206;DHT22;22242;48.796;9.930;2023-04-01T04:04:50;7.70;99.90
36206;DHT22;22242;48.796;9.930;2023-04-01T04:07:18;7.70;99.90
36206;DHT22;22242;48.796;9.930;2023-04-01T04:09:58;7.60;99.90
36206;DHT22;22242;48.796;9.930;2023-04-01T04:12:25;7.70;99.90
36206;DHT22;22242;48.796;9.930;2023-04-01T04:14:53;7.70;99.90
36206;DHT22;22242;48.796;9.930;2023-04-01T04:17:20;7.60;99.90
36206;DHT22;22242;48.796;9.930;2023-04-01T04:19:47;7.60;99.90
36206;DHT22;22242;48.796;9.930;2023-04-01T04:22:16;7.60;99.90
36206;DHT22;22242;48.796;9.930;2023-04-01T04:24:43;7.70;99.90
36206;DHT22;22242;48.796;9.930;2023-04-01T04:27:12;7.60;99.90
36206;DHT22;22242;48.796;9.930;2023-04-01T04:30:06;7.60;99.90
36206;DHT22;22242;48.796;9.930;2023-04-01T04:32:34;7.60;99.90
36206;DHT22;22242;48.796;9.930;2023-04-01T04:35:02;7.60;99.90
36206;DHT22;22242;48.796;9.930;2023-04-01T04:37:31;7.50;99.90
36206;DHT22;22242;48.796;9.930;2023-04-01T04:39:59;7.40;99.90
36206;DHT22;22242;48.796;9.930;2023-04-01T04:42:27;7.40;99.90
36206;DHT22;22242;48.796;9.930;2023-04-01T04:44:59;7.50;99.90
36206;DHT22;22242;48.796;9.930;2023-04-01T04:47:27;7.40;99.90
36206;DHT22;22242;48.796;9.930;2023-04-01T04:49:55;7.50;99.90
36206;DHT22;22242;48.796;9.930;2023-04-01T04:52:22;7.40;99.90
36206;DHT22;22242;48.796;9.930;2023-04-01T04:54:50;7.50;99.90
36206;DHT22;22242;48.796;9.930;2023-04-01T04:57:17;7.40;99.90
36206;DHT22;22242;48.796;9.930;2023-04-01T04:59:51;7.40;99.90
36206;DHT22;22242;48.796;9.930;2023-04-01T05:02:29;7.40;99.90
36206;DHT22;22242;48.796;9.930;2023-04-01T05:04:56;7.50;99.90
36206;DHT22;22242;48.796;9.930;2023-04-01T05:07:23;7.50;99.90
36206;DHT22;22242;48.796;9.930;2023-04-01T05:09:51;7.60;99.90
36206;DHT22;22242;48.796;9.930;2023-04-01T05:12:18;7.70;99.90
36206;DHT22;22242;48.796;9.930;2023-04-01T05:14:57;7.70;99.90
36206;DHT22;22242;48.796;9.930;2023-04-01T05:17:25;7.80;99.90
36206;DHT22;22242;48.796;9.930;2023-04-01T05:19:52;7.80;99.90
36206;DHT22;22242;48.796;9.930;2023-04-01T05:22:19;7.90;99.90
36206;DHT22;22242;48.796;9.930;2023-04-01T05:24:47;7.90;99.90
36206;DHT22;22242;48.796;9.930;2023-04-01T05:27:16;7.90;99.90
36206;DHT22;22242;48.796;9.930;2023-04-01T05:29:43;7.90;99.90
36206;DHT22;22242;48.796;9.930;2023-04-01T05:32:27;7.90;99.90
36206;DHT22;22242;48.796;9.930;2023-04-01T05:34:54;8.00;99.90
36206;DHT22;22242;48.796;9.930;2023-04-01T05:37:21;8.00;99.90
36206;DHT22;22242;48.796;9.930;2023-04-01T05:39:48;8.10;99.90
36206;DHT22;22242;48.796;9.930;2023-04-01T05:42:17;8.10;99.90
36206;DHT22;22242;48.796;9.930;2023-04-01T05:44:44;8.20;99.90
36206;DHT22;22242;48.796;9.930;2023-04-01T05:47:29;8.30;99.90
36206;DHT22;22242;48.796;9.930;2023-04-01T05:49:57;8.20;99.90
36206;DHT22;22242;48.796;9.930;2023-04-01T05:52:25;8.20;99.90
36206;DHT22;22242;48.796;9.930;2023-04-01T05:54:52;8.10;99.90
36206;DHT22;22242;48.796;9.930;2023-04-01T05:57:20;8.20;99.90
36206;DHT22;22242;48.796;9.930;2023-04-01T05:59:48;8.20;99.90
36206;DHT22;22242;48.796;9.930;2023-04-01T06:02:17;8.30;99.90
36206;DHT22;22242;48.796;9.930;2023-04-01T06:04:45;8.30;99.90
36206;DHT22;22242;48.796;9.930;2023-04-01T06:07:13;8.30;99.90
36206;DHT22;22242;48.796;9.930;2023-04-01T06:09:41;8.40;99.90
36206;DHT22;22242;48.796;9.930;2023-04-01T06:12:39;8.40;99.90
36206;DHT22;22242;48.796;9.930;2023-04-01T06:15:18;8.60;99.90
36206;DHT22;22242;48.796;9.930;2023-04-01T06:18:03;8.60;99.90
36206;DHT22;22242;48.796;9.930;2023-04-01T06:20:42;8.70;99.90
36206;DHT22;22242;48.796;9.930;2023-04-01T06:23:29;9.00;99.90
36206;DHT22;22242;48.796;9.930;2023-04-01T06:26:21;9.00;99.90
36206;DHT22;22242;48.796;9.930;2023-04-01T06:35:15;9.10;99.90
36206;DHT22;22242;48.796;9.930;2023-04-01T06:37:55;9.10;99.90
36206;DHT22;22242;48.796;9.930;2023-04-01T06:40:44;9.00;99.90
36206;DHT22;22242;48.796;9.930;2023-04-01T06:43:21;9.00;99.90
36206;DHT22;22242;48.796;9.930;2023-04-01T06:46:37;9.10;99.90
36206;DHT22;22242;48.796;9.930;2023-04-01T06:49:52;9.00;99.90
36206;DHT22;22242;48.796;9.930;2023-04-01T06:52:57;9.00;99.90
36206;DHT22;22242;48.796;9.930;2023-04-01T06:55:47;9.10;99.90
36206;DHT22;22242;48.796;9.930;2023-04-01T06:58:36;8.80;99.90
36206;DHT22;22242;48.796;9.930;2023-04-01T07:01:07;9.00;99.90
36206;DHT22;22242;48.796;9.930;2023-04-01T07:03:39;9.10;99.90
36206;DHT22;22242;48.796;9.930;2023-04-01T07:06:10;9.10;99.90
36206;DHT22;22242;48.796;9.930;2023-04-01T07:08:51;9.10;99.90
36206;DHT22;22242;48.796;9.930;2023-04-01T07:11:24;9.10;99.90
36206;DHT22;22242;48.796;9.930;2023-04-01T07:14:16;8.90;99.90
36206;DHT22;22242;48.796;9.930;2023-04-01T07:16:49;9.00;99.90
36206;DHT22;22242;48.796;9.930;2023-04-01T07:19:23;9.00;99.90
36206;DHT22;22242;48.796;9.930;2023-04-01T07:22:14;9.10;99.90
36206;DHT22;22242;48.796;9.930;2023-04-01T07:25:11;9.00;99.90
36206;DHT22;22242;48.796;9.930;2023-04-01T07:27:38;9.00;99.90
36206;DHT22;22242;48.796;9.930;2023-04-01T07:30:13;9.10;99.90
36206;DHT22;22242;48.796;9.930;2023-04-01T07:32:44;9.10;99.90
36206;DHT22;22242;48.796;9.930;2023-04-01T07:35:21;9.10;99.90
36206;DHT22;22242;48.796;9.930;2023-04-01T07:37:58;9.20;99.90
36206;DHT22;22242;48.796;9.930;2023-04-01T07:40:34;9.20;99.90
36206;DHT22;22242;48.796;9.930;2023-04-01T07:43:17;9.30;99.90
36206;DHT22;22242;48.796;9.930;2023-04-01T07:46:03;9.20;99.90
36206;DHT22;22242;48.796;9.930;2023-04-01T07:48:39;9.20;99.90
36206;DHT22;22242;48.796;9.930;2023-04-01T07:51:15;9.30;99.90
36206;DHT22;22242;48.796;9.930;2023-04-01T07:53:48;9.30;99.90
36206;DHT22;22242;48.796;9.930;2023-04-01T07:56:20;9.40;99.90
36206;DHT22;22242;48.796;9.930;2023-04-01T07:58:57;9.40;99.90
36206;DHT22;22242;48.796;9.930;2023-04-01T08:01:57;9.40;99.90
36206;DHT22;22242;48.796;9.930;2023-04-01T08:04:35;9.50;99.90
36206;DHT22;22242;48.796;9.930;2023-04-01T08:07:13;9.60;99.90
36206;DHT22;22242;48.796;9.930;2023-04-01T08:10:05;9.70;99.90
36206;DHT22;22242;48.796;9.930;2023-04-01T08:13:08;9.90;99.90
36206;DHT22;22242;48.796;9.930;2023-04-01T08:16:06;9.90;99.90
36206;DHT22;22242;48.796;9.930;2023-04-01T08:18:49;10.00;99.90
36206;DHT22;22242;48.796;9.930;2023-04-01T08:21:23;10.00;99.90
36206;DHT22;22242;48.796;9.930;2023-04-01T08:23:55;10.00;99.90
36206;DHT22;22242;48.796;9.930;2023-04-01T08:26:30;10.10;99.90
36206;DHT22;22242;48.796;9.930;2023-04-01T08:29:01;10.20;99.90
36206;DHT22;22242;48.796;9.930;2023-04-01T08:31:34;10.30;99.90
36206;DHT22;22242;48.796;9.930;2023-04-01T08:34:08;10.20;99.90
36206;DHT22;22242;48.796;9.930;2023-04-01T08:36:39;10.00;99.90
36206;DHT22;22242;48.796;9.930;2023-04-01T08:39:16;10.00;99.90
36206;DHT22;22242;48.796;9.930;2023-04-01T08:42:13;10.00;99.90
36206;DHT22;22242;48.796;9.930;2023-04-01T08:45:15;10.10;99.90
36206;DHT22;22242;48.796;9.930;2023-04-01T08:48:15;10.10;99.90
36206;DHT22;22242;48.796;9.930;2023-04-01T08:51:08;10.00;99.90
36206;DHT22;22242;48.796;9.930;2023-04-01T08:54:07;9.70;99.90
36206;DHT22;22242;48.796;9.930;2023-04-01T08:56:42;9.70;99.90
36206;DHT22;22242;48.796;9.930;2023-04-01T08:59:36;9.60;99.90
36206;DHT22;22242;48.796;9.930;2023-04-01T09:02:53;9.60;99.90
36206;DHT22;22242;48.796;9.930;2023-04-01T09:06:12;9.50;99.90
36206;DHT22;22242;48.796;9.930;2023-04-01T09:09:02;9.30;99.90
36206;DHT22;22242;48.796;9.930;2023-04-01T09:11:47;9.20;99.90
36206;DHT22;22242;48.796;9.930;2023-04-01T09:14:25;9.20;99.90
36206;DHT22;22242;48.796;9.930;2023-04-01T09:20:42;9.20;99.90
36206;DHT22;22242;48.796;9.930;2023-04-01T09:23:35;9.20;99.90
36206;DHT22;22242;48.796;9.930;2023-04-01T09:26:13;9.30;99.90
36206;DHT22;22242;48.796;9.930;2023-04-01T09:28:53;9.40;99.90
36206;DHT22;22242;48.796;9.930;2023-04-01T09:35:21;9.60;99.90
36206;DHT22;22242;48.796;9.930;2023-04-01T09:37:53;9.50;99.90
36206;DHT22;22242;48.796;9.930;2023-04-01T09:40:33;9.50;99.90
36206;DHT22;22242;48.796;9.930;2023-04-01T09:43:25;9.40;99.90
36206;DHT22;22242;48.796;9.930;2023-04-01T09:46:16;9.40;99.90
36206;DHT22;22242;48.796;9.930;2023-04-01T09:49:04;9.10;99.90
36206;DHT22;22242;48.796;9.930;2023-04-01T09:51:39;9.10;99.90
36206;DHT22;22242;48.796;9.930;2023-04-01T09:54:22;9.10;99.90
36206;DHT22;22242;48.796;9.930;2023-04-01T10:00:36;8.90;99.90
36206;DHT22;22242;48.796;9.930;2023-04-01T10:06:54;8.80;99.90
36206;DHT22;22242;48.796;9.930;2023-04-01T10:09:52;9.00;99.90
36206;DHT22;22242;48.796;9.930;2023-04-01T10:12:58;9.00;99.90
36206;DHT22;22242;48.796;9.930;2023-04-01T10:15:46;8.90;99.90
36206;DHT22;22242;48.796;9.930;2023-04-01T10:18:40;9.10;99.90
36206;DHT22;22242;48.796;9.930;2023-04-01T10:21:29;9.20;99.90
36206;DHT22;22242;48.796;9.930;2023-04-01T10:24:14;9.20;99.90
36206;DHT22;22242;48.796;9.930;2023-04-01T10:26:59;9.40;99.90
36206;DHT22;22242;48.796;9.930;2023-04-01T10:30:15;9.40;99.90
36206;DHT22;22242;48.796;9.930;2023-04-01T10:36:27;9.50;99.90
36206;DHT22;22242;48.796;9.930;2023-04-01T10:39:17;9.40;99.90
36206;DHT22;22242;48.796;9.930;2023-04-01T10:42:20;9.50;99.90
36206;DHT22;22242;48.796;9.930;2023-04-01T10:45:52;9.30;99.90
36206;DHT22;22242;48.796;9.930;2023-04-01T10:51:57;9.30;99.90
36206;DHT22;22242;48.796;9.930;2023-04-01T10:54:48;9.50;99.90
36206;DHT22;22242;48.796;9.930;2023-04-01T10:58:10;9.30;99.90
36206;DHT22;22242;48.796;9.930;2023-04-01T11:01:22;9.20;99.90
36206;DHT22;22242;48.796;9.930;2023-04-01T11:04:50;9.40;99.90
36206;DHT22;22242;48.796;9.930;2023-04-01T11:08:14;9.30;99.90
36206;DHT22;22242;48.796;9.930;2023-04-01T11:14:17;9.40;99.90
36206;DHT22;22242;48.796;9.930;2023-04-01T11:17:20;9.20;99.90
36206;DHT22;22242;48.796;9.930;2023-04-01T11:20:22;9.50;99.90
36206;DHT22;22242;48.796;9.930;2023-04-01T11:23:19;9.50;99.90
36206;DHT22;22242;48.796;9.930;2023-04-01T11:25:59;9.30;99.90
36206;DHT22;22242;48.796;9.930;2023-04-01T11:32:17;8.90;99.90
36206;DHT22;22242;48.796;9.930;2023-04-01T11:34:57;9.00;99.90
36206;DHT22;22242;48.796;9.930;2023-04-01T11:37:36;9.00;99.90
36206;DHT22;22242;48.796;9.930;2023-04-01T11:40:43;9.00;99.90
36206;DHT22;22242;48.796;9.930;2023-04-01T11:43:36;8.90;99.90
36206;DHT22;22242;48.796;9.930;2023-04-01T11:46:23;8.90;99.90
36206;DHT22;22242;48.796;9.930;2023-04-01T11:49:00;8.70;99.90
36206;DHT22;22242;48.796;9.930;2023-04-01T11:52:07;8.80;99.90
36206;DHT22;22242;48.796;9.930;2023-04-01T11:54:51;8.80;99.90
36206;DHT22;22242;48.796;9.930;2023-04-01T11:57:43;8.80;99.90
36206;DHT22;22242;48.796;9.930;2023-04-01T12:00:38;8.90;99.90
36206;DHT22;22242;48.796;9.930;2023-04-01T12:03:27;8.90;99.90
36206;DHT22;22242;48.796;9.930;2023-04-01T12:06:02;9.00;99.90
36206;DHT22;22242;48.796;9.930;2023-04-01T12:08:39;9.20;99.90
36206;DHT22;22242;48.796;9.930;2023-04-01T12:11:15;9.30;99.90
36206;DHT22;22242;48.796;9.930;2023-04-01T12:13:50;9.20;99.90
36206;DHT22;22242;48.796;9.930;2023-04-01T12:16:32;9.10;99.90
36206;DHT22;22242;48.796;9.930;2023-04-01T12:19:11;9.10;99.90
36206;DHT22;22242;48.796;9.930;2023-04-01T12:21:45;9.20;99.90
36206;DHT22;22242;48.796;9.930;2023-04-01T12:24:47;9.20;99.90
36206;DHT22;22242;48.796;9.930;2023-04-01T12:27:38;9.40;99.90
36206;DHT22;22242;48.796;9.930;2023-04-01T12:30:24;9.30;99.90
36206;DHT22;22242;48.796;9.930;2023-04-01T12:36:12;9.70;99.90
36206;DHT22;22242;48.796;9.930;2023-04-01T12:38:48;9.70;99.90
36206;DHT22;22242;48.796;9.930;2023-04-01T12:41:25;9.70;99.90
36206;DHT22;22242;48.796;9.930;2023-04-01T12:44:13;9.70;99.90
36206;DHT22;22242;48.796;9.930;2023-04-01T12:47:12;9.50;99.90
36206;DHT22;22242;48.796;9.930;2023-04-01T12:49:57;9.30;99.90
36206;DHT22;22242;48.796;9.930;2023-04-01T12:52:43;9.40;99.90
36206;DHT22;22242;48.796;9.930;2023-04-01T12:55:37;9.40;99.90
36206;DHT22;22242;48.796;9.930;2023-04-01T12:58:31;9.80;99.90
36206;DHT22;22242;48.796;9.930;2023-04-01T13:04:45;10.30;99.90
36206;DHT22;22242;48.796;9.930;2023-04-01T13:07:41;10.30;99.90
36206;DHT22;22242;48.796;9.930;2023-04-01T13:10:20;9.90;99.90
36206;DHT22;22242;48.796;9.930;2023-04-01T13:13:05;10.00;99.90
36206;DHT22;22242;48.796;9.930;2023-04-01T13:15:40;9.60;99.90
36206;DHT22;22242;48.796;9.930;2023-04-01T13:18:18;9.80;99.90
36206;DHT22;22242;48.796;9.930;2023-04-01T13:20:54;10.10;99.90
36206;DHT22;22242;48.796;9.930;2023-04-01T13:23:31;9.70;99.90
36206;DHT22;22242;48.796;9.930;2023-04-01T13:26:09;9.70;99.90
36206;DHT22;22242;48.796;9.930;2023-04-01T13:28:43;9.70;99.90
36206;DHT22;22242;48.796;9.930;2023-04-01T13:31:29;9.80;99.90
36206;DHT22;22242;48.796;9.930;2023-04-01T13:34:09;9.90;99.90
36206;DHT22;22242;48.796;9.930;2023-04-01T13:36:51;9.80;99.90
36206;DHT22;22242;48.796;9.930;2023-04-01T13:39:39;9.70;99.90
36206;DHT22;22242;48.796;9.930;2023-04-01T13:42:16;9.80;99.90
36206;DHT22;22242;48.796;9.930;2023-04-01T13:44:47;9.70;99.90
36206;DHT22;22242;48.796;9.930;2023-04-01T13:50:26;9.60;99.90
36206;DHT22;22242;48.796;9.930;2023-04-01T13:53:26;9.80;99.90
36206;DHT22;22242;48.796;9.930;2023-04-01T13:56:04;9.70;99.90
36206;DHT22;22242;48.796;9.930;2023-04-01T13:58:57;9.80;99.90
36206;DHT22;22242;48.796;9.930;2023-04-01T14:01:32;9.70;99.90
36206;DHT22;22242;48.796;9.930;2023-04-01T14:04:28;9.60;99.90
36206;DHT22;22242;48.796;9.930;2023-04-01T14:07:08;9.60;99.90
36206;DHT22;22242;48.796;9.930;2023-04-01T14:09:54;9.50;99.90
36206;DHT22;22242;48.796;9.930;2023-04-01T14:12:30;9.50;99.90
36206;DHT22;22242;48.796;9.930;2023-04-01T14:15:14;9.40;99.90
36206;DHT22;22242;48.796;9.930;2023-04-01T14:18:01;9.30;99.90
36206;DHT22;22242;48.796;9.930;2023-04-01T14:20:38;9.30;99.90
36206;DHT22;22242;48.796;9.930;2023-04-01T14:23:23;9.30;99.90
36206;DHT22;22242;48.796;9.930;2023-04-01T14:26:09;9.20;99.90
36206;DHT22;22242;48.796;9.930;2023-04-01T14:28:46;9.00;99.90
36206;DHT22;22242;48.796;9.930;2023-04-01T14:31:46;9.00;99.90
36206;DHT22;22242;48.796;9.930;2023-04-01T14:34:25;9.00;99.90
36206;DHT22;22242;48.796;9.930;2023-04-01T14:37:11;9.10;99.90
36206;DHT22;22242;48.796;9.930;2023-04-01T14:40:13;9.10;99.90
36206;DHT22;22242;48.796;9.930;2023-04-01T14:46:08;9.20;99.90
36206;DHT22;22242;48.796;9.930;2023-04-01T14:48:50;9.20;99.90
36206;DHT22;22242;48.796;9.930;2023-04-01T14:51:22;9.20;99.90
36206;DHT22;22242;48.796;9.930;2023-04-01T14:53:59;9.30;99.90
36206;DHT22;22242;48.796;9.930;2023-04-01T14:56:40;9.40;99.90
36206;DHT22;22242;48.796;9.930;2023-04-01T14:59:17;9.20;99.90
36206;DHT22;22242;48.796;9.930;2023-04-01T15:01:57;9.10;99.90
36206;DHT22;22242;48.796;9.930;2023-04-01T15:04:40;9.20;99.90
36206;DHT22;22242;48.796;9.930;2023-04-01T15:10:24;8.90;99.90
36206;DHT22;22242;48.796;9.930;2023-04-01T15:13:04;8.80;99.90
36206;DHT22;22242;48.796;9.930;2023-04-01T15:15:51;8.80;99.90
36206;DHT22;22242;48.796;9.930;2023-04-01T15:18:27;8.70;99.90
36206;DHT22;22242;48.796;9.930;2023-04-01T15:21:18;8.60;99.90
36206;DHT22;22242;48.796;9.930;2023-04-01T15:23:57;8.60;99.90
36206;DHT22;22242;48.796;9.930;2023-04-01T15:26:37;8.60;99.90
36206;DHT22;22242;48.796;9.930;2023-04-01T15:32:17;8.70;99.90
36206;DHT22;22242;48.796;9.930;2023-04-01T15:34:53;8.80;99.90
36206;DHT22;22242;48.796;9.930;2023-04-01T15:37:30;8.80;99.90
36206;DHT22;22242;48.796;9.930;2023-04-01T15:40:05;8.80;99.90
36206;DHT22;22242;48.796;9.930;2023-04-01T15:42:47;9.00;99.90
36206;DHT22;22242;48.796;9.930;2023-04-01T15:45:42;9.10;99.90
36206;DHT22;22242;48.796;9.930;2023-04-01T15:48:37;9.10;99.90
36206;DHT22;22242;48.796;9.930;2023-04-01T15:51:12;8.90;99.90
36206;DHT22;22242;48.796;9.930;2023-04-01T15:54:14;8.90;99.90
36206;DHT22;22242;48.796;9.930;2023-04-01T15:56:53;8.90;99.90
36206;DHT22;22242;48.796;9.930;2023-04-01T15:59:44;8.80;99.90
36206;DHT22;22242;48.796;9.930;2023-04-01T16:02:19;8.80;99.90
36206;DHT22;22242;48.796;9.930;2023-04-01T16:04:55;8.60;99.90
36206;DHT22;22242;48.796;9.930;2023-04-01T16:10:38;8.70;99.90
36206;DHT22;22242;48.796;9.930;2023-04-01T16:13:22;8.60;99.90
36206;DHT22;22242;48.796;9.930;2023-04-01T16:15:57;8.60;99.90
36206;DHT22;22242;48.796;9.930;2023-04-01T16:18:48;8.60;99.90
36206;DHT22;22242;48.796;9.930;2023-04-01T16:21:34;8.50;99.90
36206;DHT22;22242;48.796;9.930;2023-04-01T16:24:10;8.50;99.90
36206;DHT22;22242;48.796;9.930;2023-04-01T16:26:44;8.50;99.90
36206;DHT22;22242;48.796;9.930;2023-04-01T16:29:24;8.50;99.90
36206;DHT22;22242;48.796;9.930;2023-04-01T16:31:58;8.50;99.90
36206;DHT22;22242;48.796;9.930;2023-04-01T16:34:34;8.40;99.90
36206;DHT22;22242;48.796;9.930;2023-04-01T16:37:09;8.40;99.90
36206;DHT22;22242;48.796;9.930;2023-04-01T16:39:46;8.60;99.90
36206;DHT22;22242;48.796;9.930;2023-04-01T16:42:22;8.50;99.90
36206;DHT22;22242;48.796;9.930;2023-04-01T16:44:55;8.50;99.90
36206;DHT22;22242;48.796;9.930;2023-04-01T16:47:30;8.50;99.90
36206;DHT22;22242;48.796;9.930;2023-04-01T16:50:05;8.50;99.90
36206;DHT22;22242;48.796;9.930;2023-04-01T16:52:59;8.40;99.90
36206;DHT22;22242;48.796;9.930;2023-04-01T16:55:46;8.40;99.90
36206;DHT22;22242;48.796;9.930;2023-04-01T16:58:21;8.40;99.90
36206;DHT22;22242;48.796;9.930;2023-04-01T17:00:53;8.40;99.90
36206;DHT22;22242;48.796;9.930;2023-04-01T17:03:26;8.40;99.90
36206;DHT22;22242;48.796;9.930;2023-04-01T17:06:03;8.40;99.90
36206;DHT22;22242;48.796;9.930;2023-04-01T17:08:48;8.40;99.90
36206;DHT22;22242;48.796;9.930;2023-04-01T17:11:19;8.40;99.90
36206;DHT22;22242;48.796;9.930;2023-04-01T17:13:58;8.40;99.90
36206;DHT22;22242;48.796;9.930;2023-04-01T17:16:50;8.40;99.90
36206;DHT22;22242;48.796;9.930;2023-04-01T17:19:35;8.40;99.90
36206;DHT22;22242;48.796;9.930;2023-04-01T17:22:11;8.40;99.90
36206;DHT22;22242;48.796;9.930;2023-04-01T17:24:51;8.40;99.90
36206;DHT22;22242;48.796;9.930;2023-04-01T17:27:30;8.40;99.90
36206;DHT22;22242;48.796;9.930;2023-04-01T17:30:22;8.30;99.90
36206;DHT22;22242;48.796;9.930;2023-04-01T17:33:22;8.40;99.90
36206;DHT22;22242;48.796;9.930;2023-04-01T17:35:57;8.30;99.90
36206;DHT22;22242;48.796;9.930;2023-04-01T17:38:41;8.30;99.90
36206;DHT22;22242;48.796;9.930;2023-04-01T17:41:24;8.30;99.90
36206;DHT22;22242;48.796;9.930;2023-04-01T17:43:57;8.30;99.90
36206;DHT22;22242;48.796;9.930;2023-04-01T17:46:35;8.30;99.90
36206;DHT22;22242;48.796;9.930;2023-04-01T17:49:19;8.20;99.90
36206;DHT22;22242;48.796;9.930;2023-04-01T17:51:55;8.20;99.90
36206;DHT22;22242;48.796;9.930;2023-04-01T17:54:31;8.10;99.90
36206;DHT22;22242;48.796;9.930;2023-04-01T17:57:23;8.10;99.90